Portada
METAR-TAF:

METAR-TAF

Aeroports :

Toyama, Japó

latitud: 36-39N, longitud: 137-11E, altitud: 24 m

Observació

L'informe es va fer fa 1 hora i 19 minuts, a les 12:00 UTC
Vent 2 kt amb direcció variable
Temperatura 27°C
Humitat 84%
Pressió 1005 hPa
Visibilitat 10 km o més
Escasses núvols a una alçada de 2000 ft

METAR: RJNT 171200Z VRB02KT 9999 FEW020 27/24 Q1005

Hora: 22:19 (13:19 UTC)

Pronòstic

L'informe es va fer fa 2 hores i 14 minuts, a les 11:05 UTC
Pronòstic vàlid del 17 a les 12 UTC al 18 a les 18 UTC
Vent 4 kt del Sud
Visibilitat 10 km o més
Escasses núvols a una alçada de 2000 ft
Evolucionant progressivament
l' 17 a les 22 UTC al 18 a les 00 UTC
Vent 6 kt del Nord
Evolucionant progressivament
l' 18 a les 09 UTC al 18 a les 12 UTC
Vent 4 kt del Sud

TAF: RJNT 171105Z 1712/1818 19004KT 9999 FEW020 BECMG 1722/1800 35006KT BECMG 1809/1812 19004KT

Observacions i pronòstics meteorològics de més de 4000 aeroports (METAR i TAF).

Les estacions disponibles són els punts grocs i vermells al mapa.

Posi el ratolí al punt desitjat per veure el nom de l'estació.

Feu clic per veure les observacions i els pronòstics meteorològics.

Per canviar el mapa: feu clic els botons verds amb una creu de color negre per apropar; al botó verd amb un guió per allunyar la imatge; o en les fletxes verdes per a mapes adjacents.


METAR-TAF: